sensor_id;sensor_type;location;lat;lon;timestamp;P1;durP1;ratioP1;P2;durP2;ratioP2
51612;SDS011;37694;51.748;14.326;2023-08-07T00:00:40;5.85;;;2.50;;
51612;SDS011;37694;51.748;14.326;2023-08-07T00:03:06;2.40;;;2.20;;
51612;SDS011;37694;51.748;14.326;2023-08-07T00:05:32;3.80;;;2.17;;
51612;SDS011;37694;51.748;14.326;2023-08-07T00:07:57;5.25;;;2.60;;
51612;SDS011;37694;51.748;14.326;2023-08-07T00:10:23;4.55;;;2.35;;
51612;SDS011;37694;51.748;14.326;2023-08-07T00:12:49;4.93;;;2.45;;
51612;SDS011;37694;51.748;14.326;2023-08-07T00:15:15;3.55;;;2.35;;
51612;SDS011;37694;51.748;14.326;2023-08-07T00:17:41;10.48;;;2.42;;
51612;SDS011;37694;51.748;14.326;2023-08-07T00:20:07;3.53;;;2.83;;
51612;SDS011;37694;51.748;14.326;2023-08-07T00:22:33;4.13;;;2.80;;
51612;SDS011;37694;51.748;14.326;2023-08-07T00:24:58;3.58;;;2.40;;
51612;SDS011;37694;51.748;14.326;2023-08-07T00:27:24;3.78;;;2.22;;
51612;SDS011;37694;51.748;14.326;2023-08-07T00:29:50;6.63;;;2.50;;
51612;SDS011;37694;51.748;14.326;2023-08-07T00:32:16;5.47;;;2.67;;
51612;SDS011;37694;51.748;14.326;2023-08-07T00:34:41;5.28;;;2.65;;
51612;SDS011;37694;51.748;14.326;2023-08-07T00:37:07;6.05;;;2.65;;
51612;SDS011;37694;51.748;14.326;2023-08-07T00:39:33;4.60;;;2.63;;
51612;SDS011;37694;51.748;14.326;2023-08-07T00:41:58;4.80;;;2.80;;
51612;SDS011;37694;51.748;14.326;2023-08-07T00:44:24;2.78;;;2.17;;
51612;SDS011;37694;51.748;14.326;2023-08-07T00:46:50;3.97;;;2.40;;
51612;SDS011;37694;51.748;14.326;2023-08-07T00:49:16;3.22;;;2.45;;
51612;SDS011;37694;51.748;14.326;2023-08-07T00:51:43;3.20;;;2.90;;
51612;SDS011;37694;51.748;14.326;2023-08-07T00:54:09;4.28;;;2.80;;
51612;SDS011;37694;51.748;14.326;2023-08-07T00:56:36;3.65;;;2.40;;
51612;SDS011;37694;51.748;14.326;2023-08-07T00:59:02;6.32;;;2.75;;
51612;SDS011;37694;51.748;14.326;2023-08-07T01:01:28;2.50;;;2.30;;
51612;SDS011;37694;51.748;14.326;2023-08-07T01:03:54;2.60;;;2.40;;
51612;SDS011;37694;51.748;14.326;2023-08-07T01:06:20;6.07;;;2.92;;
51612;SDS011;37694;51.748;14.326;2023-08-07T01:08:45;4.93;;;2.28;;
51612;SDS011;37694;51.748;14.326;2023-08-07T01:16:42;3.38;;;2.60;;
51612;SDS011;37694;51.748;14.326;2023-08-07T01:19:31;3.08;;;2.45;;
51612;SDS011;37694;51.748;14.326;2023-08-07T01:24:43;4.55;;;2.28;;
51612;SDS011;37694;51.748;14.326;2023-08-07T01:30:07;2.78;;;2.17;;
51612;SDS011;37694;51.748;14.326;2023-08-07T01:35:20;2.33;;;2.22;;
51612;SDS011;37694;51.748;14.326;2023-08-07T01:37:50;4.00;;;2.60;;
51612;SDS011;37694;51.748;14.326;2023-08-07T01:40:19;2.97;;;2.15;;
51612;SDS011;37694;51.748;14.326;2023-08-07T01:42:46;2.45;;;2.25;;
51612;SDS011;37694;51.748;14.326;2023-08-07T01:45:12;3.30;;;2.63;;
51612;SDS011;37694;51.748;14.326;2023-08-07T01:47:38;3.08;;;2.10;;
51612;SDS011;37694;51.748;14.326;2023-08-07T01:50:04;2.45;;;2.00;;
51612;SDS011;37694;51.748;14.326;2023-08-07T01:52:30;2.50;;;2.30;;
51612;SDS011;37694;51.748;14.326;2023-08-07T01:54:56;2.25;;;2.08;;
51612;SDS011;37694;51.748;14.326;2023-08-07T01:57:22;2.20;;;2.08;;
51612;SDS011;37694;51.748;14.326;2023-08-07T01:59:47;2.83;;;2.50;;
51612;SDS011;37694;51.748;14.326;2023-08-07T02:02:13;2.65;;;2.45;;
51612;SDS011;37694;51.748;14.326;2023-08-07T02:04:39;2.13;;;2.03;;
51612;SDS011;37694;51.748;14.326;2023-08-07T02:07:04;2.58;;;2.38;;
51612;SDS011;37694;51.748;14.326;2023-08-07T02:09:30;2.53;;;2.20;;
51612;SDS011;37694;51.748;14.326;2023-08-07T02:11:56;2.33;;;2.10;;
51612;SDS011;37694;51.748;14.326;2023-08-07T02:14:21;2.55;;;2.35;;
51612;SDS011;37694;51.748;14.326;2023-08-07T02:16:47;2.60;;;2.40;;
51612;SDS011;37694;51.748;14.326;2023-08-07T02:19:12;2.88;;;2.20;;
51612;SDS011;37694;51.748;14.326;2023-08-07T02:21:38;3.00;;;2.03;;
51612;SDS011;37694;51.748;14.326;2023-08-07T02:24:04;3.00;;;2.25;;
51612;SDS011;37694;51.748;14.326;2023-08-07T02:26:29;2.60;;;2.40;;
51612;SDS011;37694;51.748;14.326;2023-08-07T02:28:55;3.33;;;2.00;;
51612;SDS011;37694;51.748;14.326;2023-08-07T02:31:21;2.15;;;1.90;;
51612;SDS011;37694;51.748;14.326;2023-08-07T02:33:47;2.10;;;2.00;;
51612;SDS011;37694;51.748;14.326;2023-08-07T02:36:12;5.18;;;2.05;;
51612;SDS011;37694;51.748;14.326;2023-08-07T02:38:38;1.95;;;1.80;;
51612;SDS011;37694;51.748;14.326;2023-08-07T02:41:03;2.30;;;2.10;;
51612;SDS011;37694;51.748;14.326;2023-08-07T02:43:29;2.47;;;2.30;;
51612;SDS011;37694;51.748;14.326;2023-08-07T02:45:58;2.15;;;2.00;;
51612;SDS011;37694;51.748;14.326;2023-08-07T02:48:23;2.10;;;1.73;;
51612;SDS011;37694;51.748;14.326;2023-08-07T02:50:49;1.90;;;1.80;;
51612;SDS011;37694;51.748;14.326;2023-08-07T02:53:16;2.00;;;1.90;;
51612;SDS011;37694;51.748;14.326;2023-08-07T02:55:45;2.25;;;2.15;;
51612;SDS011;37694;51.748;14.326;2023-08-07T02:58:10;3.53;;;2.20;;
51612;SDS011;37694;51.748;14.326;2023-08-07T03:00:36;2.17;;;1.90;;
51612;SDS011;37694;51.748;14.326;2023-08-07T03:03:02;1.60;;;1.50;;
51612;SDS011;37694;51.748;14.326;2023-08-07T03:05:27;1.63;;;1.52;;
51612;SDS011;37694;51.748;14.326;2023-08-07T03:07:53;2.95;;;1.83;;
51612;SDS011;37694;51.748;14.326;2023-08-07T03:10:19;2.58;;;1.55;;
51612;SDS011;37694;51.748;14.326;2023-08-07T03:12:44;4.35;;;2.40;;
51612;SDS011;37694;51.748;14.326;2023-08-07T03:15:10;2.10;;;1.80;;
51612;SDS011;37694;51.748;14.326;2023-08-07T03:17:36;4.68;;;1.88;;
51612;SDS011;37694;51.748;14.326;2023-08-07T03:20:02;3.35;;;1.90;;
51612;SDS011;37694;51.748;14.326;2023-08-07T03:22:29;2.17;;;2.05;;
51612;SDS011;37694;51.748;14.326;2023-08-07T03:24:55;2.10;;;1.70;;
51612;SDS011;37694;51.748;14.326;2023-08-07T03:27:20;2.20;;;1.70;;
51612;SDS011;37694;51.748;14.326;2023-08-07T03:29:46;2.67;;;2.13;;
51612;SDS011;37694;51.748;14.326;2023-08-07T03:32:12;2.03;;;1.80;;
51612;SDS011;37694;51.748;14.326;2023-08-07T03:34:37;2.05;;;1.95;;
51612;SDS011;37694;51.748;14.326;2023-08-07T03:37:03;1.75;;;1.63;;
51612;SDS011;37694;51.748;14.326;2023-08-07T03:39:29;1.90;;;1.50;;
51612;SDS011;37694;51.748;14.326;2023-08-07T03:41:54;2.85;;;1.83;;
51612;SDS011;37694;51.748;14.326;2023-08-07T03:44:20;1.80;;;1.70;;
51612;SDS011;37694;51.748;14.326;2023-08-07T03:46:46;1.90;;;1.75;;
51612;SDS011;37694;51.748;14.326;2023-08-07T03:49:11;2.17;;;1.98;;
51612;SDS011;37694;51.748;14.326;2023-08-07T03:51:37;4.10;;;2.17;;
51612;SDS011;37694;51.748;14.326;2023-08-07T03:54:03;1.67;;;1.58;;
51612;SDS011;37694;51.748;14.326;2023-08-07T03:56:28;1.70;;;1.60;;
51612;SDS011;37694;51.748;14.326;2023-08-07T03:59:01;3.08;;;1.92;;
51612;SDS011;37694;51.748;14.326;2023-08-07T04:01:27;1.85;;;1.70;;
51612;SDS011;37694;51.748;14.326;2023-08-07T04:03:52;1.63;;;1.52;;
51612;SDS011;37694;51.748;14.326;2023-08-07T04:06:18;1.52;;;1.42;;
51612;SDS011;37694;51.748;14.326;2023-08-07T04:08:45;5.32;;;1.70;;
51612;SDS011;37694;51.748;14.326;2023-08-07T04:11:11;2.60;;;1.85;;
51612;SDS011;37694;51.748;14.326;2023-08-07T04:13:37;1.73;;;1.55;;
51612;SDS011;37694;51.748;14.326;2023-08-07T04:16:03;3.95;;;1.80;;
51612;SDS011;37694;51.748;14.326;2023-08-07T04:18:29;2.22;;;2.00;;
51612;SDS011;37694;51.748;14.326;2023-08-07T04:20:56;6.93;;;2.15;;
51612;SDS011;37694;51.748;14.326;2023-08-07T04:23:22;3.63;;;2.10;;
51612;SDS011;37694;51.748;14.326;2023-08-07T04:25:49;3.35;;;1.52;;
51612;SDS011;37694;51.748;14.326;2023-08-07T04:28:16;2.65;;;1.85;;
51612;SDS011;37694;51.748;14.326;2023-08-07T04:30:42;2.20;;;2.00;;
51612;SDS011;37694;51.748;14.326;2023-08-07T04:33:08;2.30;;;1.80;;
51612;SDS011;37694;51.748;14.326;2023-08-07T04:35:34;2.40;;;1.83;;
51612;SDS011;37694;51.748;14.326;2023-08-07T04:38:00;1.98;;;1.55;;
51612;SDS011;37694;51.748;14.326;2023-08-07T04:40:27;2.08;;;1.90;;
51612;SDS011;37694;51.748;14.326;2023-08-07T04:42:53;1.90;;;1.77;;
51612;SDS011;37694;51.748;14.326;2023-08-07T04:45:19;2.13;;;1.92;;
51612;SDS011;37694;51.748;14.326;2023-08-07T04:47:44;2.72;;;1.92;;
51612;SDS011;37694;51.748;14.326;2023-08-07T04:50:11;1.70;;;1.60;;
51612;SDS011;37694;51.748;14.326;2023-08-07T04:52:36;1.83;;;1.73;;
51612;SDS011;37694;51.748;14.326;2023-08-07T04:55:02;5.80;;;1.90;;
51612;SDS011;37694;51.748;14.326;2023-08-07T04:57:29;1.83;;;1.73;;
51612;SDS011;37694;51.748;14.326;2023-08-07T04:59:54;2.03;;;1.60;;
51612;SDS011;37694;51.748;14.326;2023-08-07T05:02:20;1.80;;;1.70;;
51612;SDS011;37694;51.748;14.326;2023-08-07T05:04:46;1.63;;;1.52;;
51612;SDS011;37694;51.748;14.326;2023-08-07T05:07:11;1.67;;;1.50;;
51612;SDS011;37694;51.748;14.326;2023-08-07T05:09:37;2.83;;;1.52;;
51612;SDS011;37694;51.748;14.326;2023-08-07T05:12:03;2.47;;;1.65;;
51612;SDS011;37694;51.748;14.326;2023-08-07T05:14:31;2.03;;;1.83;;
51612;SDS011;37694;51.748;14.326;2023-08-07T05:16:56;6.40;;;1.92;;
51612;SDS011;37694;51.748;14.326;2023-08-07T05:19:22;2.30;;;1.83;;
51612;SDS011;37694;51.748;14.326;2023-08-07T05:21:48;4.03;;;1.45;;
51612;SDS011;37694;51.748;14.326;2023-08-07T05:24:16;2.17;;;1.92;;
51612;SDS011;37694;51.748;14.326;2023-08-07T05:26:44;5.15;;;2.05;;
51612;SDS011;37694;51.748;14.326;2023-08-07T05:29:10;4.22;;;1.73;;
51612;SDS011;37694;51.748;14.326;2023-08-07T05:31:36;3.00;;;1.85;;
51612;SDS011;37694;51.748;14.326;2023-08-07T05:34:02;4.40;;;1.70;;
51612;SDS011;37694;51.748;14.326;2023-08-07T05:36:28;2.08;;;1.88;;
51612;SDS011;37694;51.748;14.326;2023-08-07T05:38:56;21.05;;;4.78;;
51612;SDS011;37694;51.748;14.326;2023-08-07T05:41:22;4.47;;;2.38;;
51612;SDS011;37694;51.748;14.326;2023-08-07T05:43:47;5.60;;;2.65;;
51612;SDS011;37694;51.748;14.326;2023-08-07T05:46:13;13.13;;;3.85;;
51612;SDS011;37694;51.748;14.326;2023-08-07T05:48:39;21.17;;;5.32;;
51612;SDS011;37694;51.748;14.326;2023-08-07T05:51:05;22.40;;;6.20;;
51612;SDS011;37694;51.748;14.326;2023-08-07T05:53:32;37.92;;;7.05;;
51612;SDS011;37694;51.748;14.326;2023-08-07T05:55:59;44.50;;;8.73;;
51612;SDS011;37694;51.748;14.326;2023-08-07T05:58:24;46.83;;;10.27;;
51612;SDS011;37694;51.748;14.326;2023-08-07T06:00:50;36.65;;;9.40;;
51612;SDS011;37694;51.748;14.326;2023-08-07T06:03:16;55.17;;;11.73;;
51612;SDS011;37694;51.748;14.326;2023-08-07T06:05:42;54.63;;;11.75;;
51612;SDS011;37694;51.748;14.326;2023-08-07T06:08:07;55.03;;;12.40;;
51612;SDS011;37694;51.748;14.326;2023-08-07T06:10:33;48.25;;;10.38;;
51612;SDS011;37694;51.748;14.326;2023-08-07T06:12:59;55.72;;;12.40;;
51612;SDS011;37694;51.748;14.326;2023-08-07T06:15:25;75.28;;;12.20;;
51612;SDS011;37694;51.748;14.326;2023-08-07T06:17:50;80.97;;;13.05;;
51612;SDS011;37694;51.748;14.326;2023-08-07T06:20:17;73.07;;;11.30;;
51612;SDS011;37694;51.748;14.326;2023-08-07T06:22:42;81.03;;;13.95;;
51612;SDS011;37694;51.748;14.326;2023-08-07T06:25:08;93.28;;;15.00;;
51612;SDS011;37694;51.748;14.326;2023-08-07T06:27:34;80.15;;;14.57;;
51612;SDS011;37694;51.748;14.326;2023-08-07T06:30:00;80.68;;;12.63;;
51612;SDS011;37694;51.748;14.326;2023-08-07T06:32:26;75.18;;;14.68;;
51612;SDS011;37694;51.748;14.326;2023-08-07T06:34:52;121.00;;;15.45;;
51612;SDS011;37694;51.748;14.326;2023-08-07T06:37:18;91.20;;;14.77;;
51612;SDS011;37694;51.748;14.326;2023-08-07T06:39:44;77.63;;;14.93;;
51612;SDS011;37694;51.748;14.326;2023-08-07T06:42:11;74.60;;;13.65;;
51612;SDS011;37694;51.748;14.326;2023-08-07T06:44:37;83.00;;;13.25;;
51612;SDS011;37694;51.748;14.326;2023-08-07T06:47:03;72.35;;;13.27;;
51612;SDS011;37694;51.748;14.326;2023-08-07T06:49:29;66.78;;;13.43;;
51612;SDS011;37694;51.748;14.326;2023-08-07T06:51:56;72.95;;;13.13;;
51612;SDS011;37694;51.748;14.326;2023-08-07T06:54:23;70.22;;;12.55;;
51612;SDS011;37694;51.748;14.326;2023-08-07T06:56:48;74.80;;;14.05;;
51612;SDS011;37694;51.748;14.326;2023-08-07T06:59:14;45.10;;;10.32;;
51612;SDS011;37694;51.748;14.326;2023-08-07T07:01:40;63.53;;;11.30;;
51612;SDS011;37694;51.748;14.326;2023-08-07T07:04:05;55.20;;;11.43;;
51612;SDS011;37694;51.748;14.326;2023-08-07T07:06:31;50.13;;;11.48;;
51612;SDS011;37694;51.748;14.326;2023-08-07T07:08:57;43.22;;;9.77;;
51612;SDS011;37694;51.748;14.326;2023-08-07T07:11:22;44.58;;;10.88;;
51612;SDS011;37694;51.748;14.326;2023-08-07T07:13:49;51.40;;;12.40;;
51612;SDS011;37694;51.748;14.326;2023-08-07T07:16:16;46.83;;;10.82;;
51612;SDS011;37694;51.748;14.326;2023-08-07T07:18:43;37.40;;;9.30;;
51612;SDS011;37694;51.748;14.326;2023-08-07T07:21:08;50.90;;;10.23;;
51612;SDS011;37694;51.748;14.326;2023-08-07T07:23:34;40.30;;;10.25;;
51612;SDS011;37694;51.748;14.326;2023-08-07T07:26:00;35.20;;;9.88;;
51612;SDS011;37694;51.748;14.326;2023-08-07T07:28:27;26.17;;;8.45;;
51612;SDS011;37694;51.748;14.326;2023-08-07T07:30:52;49.40;;;10.40;;
51612;SDS011;37694;51.748;14.326;2023-08-07T07:33:18;29.90;;;9.48;;
51612;SDS011;37694;51.748;14.326;2023-08-07T07:35:44;30.77;;;9.10;;
51612;SDS011;37694;51.748;14.326;2023-08-07T07:38:10;28.90;;;8.30;;
51612;SDS011;37694;51.748;14.326;2023-08-07T07:40:36;26.13;;;8.43;;
51612;SDS011;37694;51.748;14.326;2023-08-07T07:43:02;28.63;;;7.50;;
51612;SDS011;37694;51.748;14.326;2023-08-07T07:45:28;23.23;;;7.45;;
51612;SDS011;37694;51.748;14.326;2023-08-07T07:47:54;23.42;;;7.38;;
51612;SDS011;37694;51.748;14.326;2023-08-07T07:50:20;24.83;;;7.32;;
51612;SDS011;37694;51.748;14.326;2023-08-07T07:52:46;24.73;;;6.97;;
51612;SDS011;37694;51.748;14.326;2023-08-07T07:55:12;25.23;;;7.80;;
51612;SDS011;37694;51.748;14.326;2023-08-07T07:57:38;17.70;;;6.72;;
51612;SDS011;37694;51.748;14.326;2023-08-07T08:00:04;21.45;;;7.78;;
51612;SDS011;37694;51.748;14.326;2023-08-07T08:02:35;23.23;;;6.82;;
51612;SDS011;37694;51.748;14.326;2023-08-07T08:05:01;22.65;;;6.70;;
51612;SDS011;37694;51.748;14.326;2023-08-07T08:07:27;15.45;;;6.13;;
51612;SDS011;37694;51.748;14.326;2023-08-07T08:09:53;17.33;;;6.55;;
51612;SDS011;37694;51.748;14.326;2023-08-07T08:12:18;20.83;;;6.03;;
51612;SDS011;37694;51.748;14.326;2023-08-07T08:14:46;15.23;;;5.47;;
51612;SDS011;37694;51.748;14.326;2023-08-07T08:17:12;16.58;;;6.45;;
51612;SDS011;37694;51.748;14.326;2023-08-07T08:19:37;18.52;;;5.95;;
51612;SDS011;37694;51.748;14.326;2023-08-07T08:22:03;14.43;;;5.72;;
51612;SDS011;37694;51.748;14.326;2023-08-07T08:24:29;20.67;;;7.10;;
51612;SDS011;37694;51.748;14.326;2023-08-07T08:26:56;17.25;;;6.45;;
51612;SDS011;37694;51.748;14.326;2023-08-07T08:29:22;16.15;;;5.30;;
51612;SDS011;37694;51.748;14.326;2023-08-07T08:31:48;11.88;;;5.30;;
51612;SDS011;37694;51.748;14.326;2023-08-07T08:34:13;11.82;;;5.05;;
51612;SDS011;37694;51.748;14.326;2023-08-07T08:36:39;12.00;;;5.50;;
51612;SDS011;37694;51.748;14.326;2023-08-07T08:39:04;14.75;;;5.95;;
51612;SDS011;37694;51.748;14.326;2023-08-07T08:41:30;12.52;;;5.43;;
51612;SDS011;37694;51.748;14.326;2023-08-07T08:43:56;11.40;;;5.60;;
51612;SDS011;37694;51.748;14.326;2023-08-07T08:46:24;10.85;;;5.13;;
51612;SDS011;37694;51.748;14.326;2023-08-07T08:48:55;14.02;;;6.30;;
51612;SDS011;37694;51.748;14.326;2023-08-07T08:51:24;12.05;;;5.35;;
51612;SDS011;37694;51.748;14.326;2023-08-07T08:53:53;11.63;;;5.00;;
51612;SDS011;37694;51.748;14.326;2023-08-07T08:56:21;11.93;;;5.28;;
51612;SDS011;37694;51.748;14.326;2023-08-07T08:58:49;10.32;;;5.38;;
51612;SDS011;37694;51.748;14.326;2023-08-07T09:01:16;9.55;;;4.93;;
51612;SDS011;37694;51.748;14.326;2023-08-07T09:03:46;12.20;;;5.78;;
51612;SDS011;37694;51.748;14.326;2023-08-07T09:06:12;14.40;;;4.90;;
51612;SDS011;37694;51.748;14.326;2023-08-07T09:08:42;12.00;;;5.35;;
51612;SDS011;37694;51.748;14.326;2023-08-07T09:11:08;9.65;;;4.53;;
51612;SDS011;37694;51.748;14.326;2023-08-07T09:13:37;6.22;;;4.35;;
51612;SDS011;37694;51.748;14.326;2023-08-07T09:16:04;11.15;;;4.53;;
51612;SDS011;37694;51.748;14.326;2023-08-07T09:18:33;8.25;;;4.65;;
51612;SDS011;37694;51.748;14.326;2023-08-07T09:20:59;12.77;;;5.32;;
51612;SDS011;37694;51.748;14.326;2023-08-07T09:23:25;8.55;;;4.90;;
51612;SDS011;37694;51.748;14.326;2023-08-07T09:26:03;13.68;;;4.88;;
51612;SDS011;37694;51.748;14.326;2023-08-07T09:28:30;6.03;;;4.20;;
51612;SDS011;37694;51.748;14.326;2023-08-07T09:30:58;7.28;;;4.47;;
51612;SDS011;37694;51.748;14.326;2023-08-07T09:33:25;7.50;;;4.07;;
51612;SDS011;37694;51.748;14.326;2023-08-07T09:35:51;7.07;;;4.30;;
51612;SDS011;37694;51.748;14.326;2023-08-07T09:38:17;8.32;;;4.50;;
51612;SDS011;37694;51.748;14.326;2023-08-07T09:40:43;9.15;;;4.75;;
51612;SDS011;37694;51.748;14.326;2023-08-07T09:43:09;7.50;;;4.35;;
51612;SDS011;37694;51.748;14.326;2023-08-07T09:45:35;6.75;;;3.80;;
51612;SDS011;37694;51.748;14.326;2023-08-07T09:48:05;6.70;;;3.95;;
51612;SDS011;37694;51.748;14.326;2023-08-07T09:50:31;7.97;;;3.72;;
51612;SDS011;37694;51.748;14.326;2023-08-07T09:52:57;5.55;;;3.95;;
51612;SDS011;37694;51.748;14.326;2023-08-07T09:55:24;6.07;;;4.32;;
51612;SDS011;37694;51.748;14.326;2023-08-07T09:57:50;7.15;;;3.95;;
51612;SDS011;37694;51.748;14.326;2023-08-07T10:00:17;7.82;;;3.40;;
51612;SDS011;37694;51.748;14.326;2023-08-07T10:02:46;6.50;;;3.75;;
51612;SDS011;37694;51.748;14.326;2023-08-07T10:05:13;5.97;;;4.53;;
51612;SDS011;37694;51.748;14.326;2023-08-07T10:07:40;5.40;;;3.63;;
51612;SDS011;37694;51.748;14.326;2023-08-07T10:10:07;6.25;;;4.30;;
51612;SDS011;37694;51.748;14.326;2023-08-07T10:12:33;5.63;;;3.58;;
51612;SDS011;37694;51.748;14.326;2023-08-07T10:14:59;5.63;;;3.78;;
51612;SDS011;37694;51.748;14.326;2023-08-07T10:17:25;4.20;;;3.15;;
51612;SDS011;37694;51.748;14.326;2023-08-07T10:19:52;5.60;;;3.42;;
51612;SDS011;37694;51.748;14.326;2023-08-07T10:22:21;6.18;;;3.72;;
51612;SDS011;37694;51.748;14.326;2023-08-07T10:24:50;4.57;;;3.55;;
51612;SDS011;37694;51.748;14.326;2023-08-07T10:27:19;5.47;;;3.38;;
51612;SDS011;37694;51.748;14.326;2023-08-07T10:29:47;5.18;;;3.22;;
51612;SDS011;37694;51.748;14.326;2023-08-07T10:32:14;6.78;;;3.17;;
51612;SDS011;37694;51.748;14.326;2023-08-07T10:34:46;4.47;;;3.03;;
51612;SDS011;37694;51.748;14.326;2023-08-07T10:40:16;4.47;;;3.25;;
51612;SDS011;37694;51.748;14.326;2023-08-07T10:45:21;4.75;;;3.22;;
51612;SDS011;37694;51.748;14.326;2023-08-07T10:55:56;3.58;;;2.97;;
51612;SDS011;37694;51.748;14.326;2023-08-07T10:58:29;4.13;;;2.85;;
51612;SDS011;37694;51.748;14.326;2023-08-07T11:03:59;3.58;;;3.00;;
51612;SDS011;37694;51.748;14.326;2023-08-07T11:06:30;3.75;;;3.00;;
51612;SDS011;37694;51.748;14.326;2023-08-07T11:08:58;3.10;;;2.55;;
51612;SDS011;37694;51.748;14.326;2023-08-07T11:11:24;3.20;;;2.40;;
51612;SDS011;37694;51.748;14.326;2023-08-07T11:13:52;5.60;;;2.85;;
51612;SDS011;37694;51.748;14.326;2023-08-07T11:16:18;3.70;;;2.53;;
51612;SDS011;37694;51.748;14.326;2023-08-07T11:18:46;3.85;;;2.80;;
51612;SDS011;37694;51.748;14.326;2023-08-07T11:21:13;4.10;;;2.90;;
51612;SDS011;37694;51.748;14.326;2023-08-07T11:23:39;3.33;;;2.75;;
51612;SDS011;37694;51.748;14.326;2023-08-07T11:26:05;6.80;;;3.03;;
51612;SDS011;37694;51.748;14.326;2023-08-07T11:28:32;3.92;;;3.08;;
51612;SDS011;37694;51.748;14.326;2023-08-07T11:30:58;3.28;;;2.85;;
51612;SDS011;37694;51.748;14.326;2023-08-07T11:33:24;3.85;;;2.50;;
51612;SDS011;37694;51.748;14.326;2023-08-07T11:35:51;3.83;;;2.83;;
51612;SDS011;37694;51.748;14.326;2023-08-07T11:40:59;4.72;;;3.08;;
51612;SDS011;37694;51.748;14.326;2023-08-07T11:43:29;2.38;;;2.00;;
51612;SDS011;37694;51.748;14.326;2023-08-07T11:45:58;3.25;;;2.55;;
51612;SDS011;37694;51.748;14.326;2023-08-07T11:48:29;3.08;;;2.60;;
51612;SDS011;37694;51.748;14.326;2023-08-07T11:50:56;4.53;;;2.83;;
51612;SDS011;37694;51.748;14.326;2023-08-07T11:53:23;3.35;;;2.47;;
51612;SDS011;37694;51.748;14.326;2023-08-07T11:56:01;2.97;;;2.38;;
51612;SDS011;37694;51.748;14.326;2023-08-07T11:58:27;4.43;;;2.30;;
51612;SDS011;37694;51.748;14.326;2023-08-07T12:01:01;3.28;;;2.70;;
51612;SDS011;37694;51.748;14.326;2023-08-07T12:03:35;3.53;;;2.47;;
51612;SDS011;37694;51.748;14.326;2023-08-07T12:06:03;2.90;;;2.25;;
51612;SDS011;37694;51.748;14.326;2023-08-07T12:08:31;4.82;;;2.50;;
51612;SDS011;37694;51.748;14.326;2023-08-07T12:11:04;2.72;;;2.53;;
51612;SDS011;37694;51.748;14.326;2023-08-07T12:13:39;3.47;;;2.50;;
51612;SDS011;37694;51.748;14.326;2023-08-07T12:16:10;3.42;;;2.70;;
51612;SDS011;37694;51.748;14.326;2023-08-07T12:18:43;2.88;;;2.53;;
51612;SDS011;37694;51.748;14.326;2023-08-07T12:21:14;2.50;;;2.30;;
51612;SDS011;37694;51.748;14.326;2023-08-07T12:23:43;2.50;;;2.30;;
51612;SDS011;37694;51.748;14.326;2023-08-07T12:26:09;2.13;;;2.00;;
51612;SDS011;37694;51.748;14.326;2023-08-07T12:28:35;3.42;;;2.63;;
51612;SDS011;37694;51.748;14.326;2023-08-07T12:31:01;2.60;;;2.38;;
51612;SDS011;37694;51.748;14.326;2023-08-07T12:33:30;2.60;;;2.38;;
51612;SDS011;37694;51.748;14.326;2023-08-07T12:35:56;2.45;;;2.17;;
51612;SDS011;37694;51.748;14.326;2023-08-07T12:38:23;2.53;;;2.10;;
51612;SDS011;37694;51.748;14.326;2023-08-07T12:40:49;3.22;;;2.30;;
51612;SDS011;37694;51.748;14.326;2023-08-07T12:43:14;3.53;;;2.38;;
51612;SDS011;37694;51.748;14.326;2023-08-07T12:45:40;3.97;;;2.58;;
51612;SDS011;37694;51.748;14.326;2023-08-07T12:48:06;2.17;;;1.98;;
51612;SDS011;37694;51.748;14.326;2023-08-07T12:50:32;2.00;;;1.90;;
51612;SDS011;37694;51.748;14.326;2023-08-07T12:52:58;2.15;;;1.90;;
51612;SDS011;37694;51.748;14.326;2023-08-07T12:55:24;2.67;;;2.08;;
51612;SDS011;37694;51.748;14.326;2023-08-07T12:57:52;2.67;;;1.95;;
51612;SDS011;37694;51.748;14.326;2023-08-07T13:00:18;2.60;;;2.08;;
51612;SDS011;37694;51.748;14.326;2023-08-07T13:02:44;3.63;;;2.00;;
51612;SDS011;37694;51.748;14.326;2023-08-07T13:05:11;2.53;;;2.03;;
51612;SDS011;37694;51.748;14.326;2023-08-07T13:07:38;3.13;;;1.90;;
51612;SDS011;37694;51.748;14.326;2023-08-07T13:10:05;2.17;;;2.03;;
51612;SDS011;37694;51.748;14.326;2023-08-07T13:12:35;2.15;;;2.00;;
51612;SDS011;37694;51.748;14.326;2023-08-07T13:15:02;1.70;;;1.60;;
51612;SDS011;37694;51.748;14.326;2023-08-07T13:17:30;2.78;;;2.05;;
51612;SDS011;37694;51.748;14.326;2023-08-07T13:19:56;1.85;;;1.75;;
51612;SDS011;37694;51.748;14.326;2023-08-07T13:22:21;1.90;;;1.80;;
51612;SDS011;37694;51.748;14.326;2023-08-07T13:24:47;2.10;;;1.95;;
51612;SDS011;37694;51.748;14.326;2023-08-07T13:27:13;1.70;;;1.60;;
51612;SDS011;37694;51.748;14.326;2023-08-07T13:29:38;2.25;;;2.05;;
51612;SDS011;37694;51.748;14.326;2023-08-07T13:32:04;2.10;;;1.90;;
51612;SDS011;37694;51.748;14.326;2023-08-07T13:34:35;3.00;;;1.80;;
51612;SDS011;37694;51.748;14.326;2023-08-07T13:37:01;2.10;;;1.90;;
51612;SDS011;37694;51.748;14.326;2023-08-07T13:39:27;2.58;;;2.10;;
51612;SDS011;37694;51.748;14.326;2023-08-07T13:41:53;1.90;;;1.80;;
51612;SDS011;37694;51.748;14.326;2023-08-07T13:44:19;1.90;;;1.80;;
51612;SDS011;37694;51.748;14.326;2023-08-07T13:46:45;1.70;;;1.60;;
51612;SDS011;37694;51.748;14.326;2023-08-07T13:49:12;1.80;;;1.70;;
51612;SDS011;37694;51.748;14.326;2023-08-07T13:51:38;2.05;;;1.90;;
51612;SDS011;37694;51.748;14.326;2023-08-07T13:54:04;2.20;;;1.80;;
51612;SDS011;37694;51.748;14.326;2023-08-07T13:56:29;2.03;;;1.83;;
51612;SDS011;37694;51.748;14.326;2023-08-07T13:58:55;1.90;;;1.80;;
51612;SDS011;37694;51.748;14.326;2023-08-07T14:01:21;1.70;;;1.60;;
51612;SDS011;37694;51.748;14.326;2023-08-07T14:03:46;2.53;;;1.95;;
51612;SDS011;37694;51.748;14.326;2023-08-07T14:06:12;2.88;;;1.80;;
51612;SDS011;37694;51.748;14.326;2023-08-07T14:08:38;2.22;;;1.88;;
51612;SDS011;37694;51.748;14.326;2023-08-07T14:11:03;1.73;;;1.65;;
51612;SDS011;37694;51.748;14.326;2023-08-07T14:13:29;1.60;;;1.50;;
51612;SDS011;37694;51.748;14.326;2023-08-07T14:15:55;3.88;;;2.00;;
51612;SDS011;37694;51.748;14.326;2023-08-07T14:18:21;1.50;;;1.40;;
51612;SDS011;37694;51.748;14.326;2023-08-07T14:20:46;1.60;;;1.50;;
51612;SDS011;37694;51.748;14.326;2023-08-07T14:23:12;1.92;;;1.67;;
51612;SDS011;37694;51.748;14.326;2023-08-07T14:25:38;2.00;;;1.80;;
51612;SDS011;37694;51.748;14.326;2023-08-07T14:28:03;2.75;;;1.42;;
51612;SDS011;37694;51.748;14.326;2023-08-07T14:30:31;2.83;;;2.20;;
51612;SDS011;37694;51.748;14.326;2023-08-07T14:32:57;4.90;;;2.17;;
51612;SDS011;37694;51.748;14.326;2023-08-07T14:35:23;8.93;;;1.73;;
51612;SDS011;37694;51.748;14.326;2023-08-07T14:37:49;8.93;;;2.20;;
51612;SDS011;37694;51.748;14.326;2023-08-07T14:40:14;26.30;;;4.40;;
51612;SDS011;37694;51.748;14.326;2023-08-07T14:42:40;8.88;;;2.03;;
51612;SDS011;37694;51.748;14.326;2023-08-07T14:45:06;5.22;;;1.83;;
51612;SDS011;37694;51.748;14.326;2023-08-07T14:47:32;9.00;;;1.80;;
51612;SDS011;37694;51.748;14.326;2023-08-07T14:49:57;6.85;;;2.33;;
51612;SDS011;37694;51.748;14.326;2023-08-07T14:52:23;12.48;;;2.33;;
51612;SDS011;37694;51.748;14.326;2023-08-07T14:54:49;14.68;;;2.70;;
51612;SDS011;37694;51.748;14.326;2023-08-07T14:57:14;15.32;;;3.00;;
51612;SDS011;37694;51.748;14.326;2023-08-07T14:59:40;16.05;;;2.85;;